Hancock, Minnesota
Current Conditions -  °F | °C
As of 4:13 AM on Saturday 22 Nov 2014 (Local Time) from KMOX Reporting Station
Clear Clear  
Wind Chill: 19°   Ceiling: Unl
Heat Index: 27°   Visibility: 7mi
Dew Point: 25°   Wind: 7mph
Humidity: 93%   Direction: 190°S
Pressure: 29.71"   Gusts: NA
Location:  45.5°N, 95.8°W
Report Text: KMOX 221013Z AUTO 19006KT 7SM CLR M03/M04 A2971 RMK AO2
Loading
Personal Weather Stations






























Interactive Weather Map New forecast layout! Learn more

10-Day Weather Forecast

Advertisements
Track Severe Weather on mobile